sensor_id;sensor_type;location;lat;lon;timestamp;P1;durP1;ratioP1;P2;durP2;ratioP2
29314;SDS011;16320;53.954;9.506;2022-09-09T00:02:29;384.58;;;62.60;;
29314;SDS011;16320;53.954;9.506;2022-09-09T00:05:37;442.60;;;64.43;;
29314;SDS011;16320;53.954;9.506;2022-09-09T00:09:19;372.58;;;64.78;;
29314;SDS011;16320;53.954;9.506;2022-09-09T00:12:34;478.45;;;62.92;;
29314;SDS011;16320;53.954;9.506;2022-09-09T00:23:03;543.00;;;69.78;;
29314;SDS011;16320;53.954;9.506;2022-09-09T00:29:55;541.35;;;67.63;;
29314;SDS011;16320;53.954;9.506;2022-09-09T00:33:23;559.42;;;70.60;;
29314;SDS011;16320;53.954;9.506;2022-09-09T00:36:30;559.20;;;69.10;;
29314;SDS011;16320;53.954;9.506;2022-09-09T00:39:37;479.30;;;70.43;;
29314;SDS011;16320;53.954;9.506;2022-09-09T00:42:48;442.70;;;69.45;;
29314;SDS011;16320;53.954;9.506;2022-09-09T00:57:27;366.13;;;69.95;;
29314;SDS011;16320;53.954;9.506;2022-09-09T01:00:41;494.80;;;73.13;;
29314;SDS011;16320;53.954;9.506;2022-09-09T01:03:58;392.00;;;70.95;;
29314;SDS011;16320;53.954;9.506;2022-09-09T01:07:07;529.22;;;76.03;;
29314;SDS011;16320;53.954;9.506;2022-09-09T01:10:28;453.63;;;75.97;;
29314;SDS011;16320;53.954;9.506;2022-09-09T01:14:03;468.75;;;78.13;;
29314;SDS011;16320;53.954;9.506;2022-09-09T01:18:17;583.30;;;79.70;;
29314;SDS011;16320;53.954;9.506;2022-09-09T01:21:20;380.42;;;76.43;;
29314;SDS011;16320;53.954;9.506;2022-09-09T01:25:01;526.13;;;77.80;;
29314;SDS011;16320;53.954;9.506;2022-09-09T01:28:22;440.92;;;80.68;;
29314;SDS011;16320;53.954;9.506;2022-09-09T01:31:32;419.27;;;76.40;;
29314;SDS011;16320;53.954;9.506;2022-09-09T01:34:47;454.67;;;78.30;;
29314;SDS011;16320;53.954;9.506;2022-09-09T01:37:52;381.20;;;75.95;;
29314;SDS011;16320;53.954;9.506;2022-09-09T01:40:56;537.70;;;78.47;;
29314;SDS011;16320;53.954;9.506;2022-09-09T01:44:02;598.83;;;79.97;;
29314;SDS011;16320;53.954;9.506;2022-09-09T01:47:08;499.58;;;75.40;;
29314;SDS011;16320;53.954;9.506;2022-09-09T01:50:13;523.50;;;75.97;;
29314;SDS011;16320;53.954;9.506;2022-09-09T01:53:21;408.58;;;73.35;;
29314;SDS011;16320;53.954;9.506;2022-09-09T02:00:19;373.23;;;71.38;;
29314;SDS011;16320;53.954;9.506;2022-09-09T02:03:25;449.08;;;72.82;;
29314;SDS011;16320;53.954;9.506;2022-09-09T02:06:36;547.88;;;76.25;;
29314;SDS011;16320;53.954;9.506;2022-09-09T02:09:43;383.00;;;70.82;;
29314;SDS011;16320;53.954;9.506;2022-09-09T02:12:56;452.35;;;73.55;;
29314;SDS011;16320;53.954;9.506;2022-09-09T02:20:11;399.42;;;72.80;;
29314;SDS011;16320;53.954;9.506;2022-09-09T02:23:17;402.92;;;70.90;;
29314;SDS011;16320;53.954;9.506;2022-09-09T02:26:24;569.35;;;76.35;;
29314;SDS011;16320;53.954;9.506;2022-09-09T02:29:31;366.08;;;69.68;;
29314;SDS011;16320;53.954;9.506;2022-09-09T02:32:42;574.70;;;79.53;;
29314;SDS011;16320;53.954;9.506;2022-09-09T02:35:49;495.90;;;75.35;;
29314;SDS011;16320;53.954;9.506;2022-09-09T02:38:55;405.35;;;70.22;;
29314;SDS011;16320;53.954;9.506;2022-09-09T02:42:00;596.60;;;73.80;;
29314;SDS011;16320;53.954;9.506;2022-09-09T02:45:08;590.97;;;78.68;;
29314;SDS011;16320;53.954;9.506;2022-09-09T02:48:18;576.55;;;74.68;;
29314;SDS011;16320;53.954;9.506;2022-09-09T02:58:43;380.80;;;71.43;;
29314;SDS011;16320;53.954;9.506;2022-09-09T03:01:47;418.15;;;74.22;;
29314;SDS011;16320;53.954;9.506;2022-09-09T03:04:52;583.22;;;74.13;;
29314;SDS011;16320;53.954;9.506;2022-09-09T03:07:56;489.35;;;72.85;;
29314;SDS011;16320;53.954;9.506;2022-09-09T03:11:00;557.28;;;75.90;;
29314;SDS011;16320;53.954;9.506;2022-09-09T03:20:14;474.35;;;67.38;;
29314;SDS011;16320;53.954;9.506;2022-09-09T03:23:18;583.63;;;69.30;;
29314;SDS011;16320;53.954;9.506;2022-09-09T03:26:22;425.00;;;66.72;;
29314;SDS011;16320;53.954;9.506;2022-09-09T03:29:27;305.08;;;61.28;;
29314;SDS011;16320;53.954;9.506;2022-09-09T03:32:31;453.30;;;62.50;;
29314;SDS011;16320;53.954;9.506;2022-09-09T03:35:36;265.45;;;53.58;;
29314;SDS011;16320;53.954;9.506;2022-09-09T03:38:40;257.15;;;52.45;;
29314;SDS011;16320;53.954;9.506;2022-09-09T03:41:45;267.20;;;55.25;;
29314;SDS011;16320;53.954;9.506;2022-09-09T03:44:52;278.05;;;56.63;;
29314;SDS011;16320;53.954;9.506;2022-09-09T03:47:56;284.63;;;54.90;;
29314;SDS011;16320;53.954;9.506;2022-09-09T03:51:00;240.27;;;56.72;;
29314;SDS011;16320;53.954;9.506;2022-09-09T03:54:05;497.38;;;64.03;;
29314;SDS011;16320;53.954;9.506;2022-09-09T03:57:11;366.00;;;57.42;;
29314;SDS011;16320;53.954;9.506;2022-09-09T04:00:17;382.05;;;58.97;;
29314;SDS011;16320;53.954;9.506;2022-09-09T04:03:22;305.00;;;58.47;;
29314;SDS011;16320;53.954;9.506;2022-09-09T04:06:31;369.90;;;60.13;;
29314;SDS011;16320;53.954;9.506;2022-09-09T04:09:35;247.02;;;52.95;;
29314;SDS011;16320;53.954;9.506;2022-09-09T04:12:40;334.40;;;56.30;;
29314;SDS011;16320;53.954;9.506;2022-09-09T04:15:54;305.10;;;57.15;;
29314;SDS011;16320;53.954;9.506;2022-09-09T04:19:03;449.70;;;58.83;;
29314;SDS011;16320;53.954;9.506;2022-09-09T04:22:08;522.40;;;64.90;;
29314;SDS011;16320;53.954;9.506;2022-09-09T04:25:13;364.15;;;59.40;;
29314;SDS011;16320;53.954;9.506;2022-09-09T04:28:18;265.63;;;56.58;;
29314;SDS011;16320;53.954;9.506;2022-09-09T04:31:25;374.10;;;62.17;;
29314;SDS011;16320;53.954;9.506;2022-09-09T04:34:29;444.45;;;61.78;;
29314;SDS011;16320;53.954;9.506;2022-09-09T04:37:35;278.17;;;51.72;;
29314;SDS011;16320;53.954;9.506;2022-09-09T04:40:42;254.68;;;51.10;;
29314;SDS011;16320;53.954;9.506;2022-09-09T04:43:48;239.93;;;51.92;;
29314;SDS011;16320;53.954;9.506;2022-09-09T04:46:52;327.80;;;54.03;;
29314;SDS011;16320;53.954;9.506;2022-09-09T04:49:57;491.13;;;58.03;;
29314;SDS011;16320;53.954;9.506;2022-09-09T04:53:01;486.80;;;65.57;;
29314;SDS011;16320;53.954;9.506;2022-09-09T04:56:09;503.13;;;64.55;;
29314;SDS011;16320;53.954;9.506;2022-09-09T04:59:17;328.35;;;59.28;;
29314;SDS011;16320;53.954;9.506;2022-09-09T05:02:22;296.95;;;59.92;;
29314;SDS011;16320;53.954;9.506;2022-09-09T05:05:30;364.10;;;63.47;;
29314;SDS011;16320;53.954;9.506;2022-09-09T05:08:39;464.80;;;65.40;;
29314;SDS011;16320;53.954;9.506;2022-09-09T05:11:44;391.75;;;62.15;;
29314;SDS011;16320;53.954;9.506;2022-09-09T05:14:49;388.90;;;63.28;;
29314;SDS011;16320;53.954;9.506;2022-09-09T05:17:58;335.70;;;61.20;;
29314;SDS011;16320;53.954;9.506;2022-09-09T05:21:05;325.48;;;60.75;;
29314;SDS011;16320;53.954;9.506;2022-09-09T05:24:10;299.75;;;59.67;;
29314;SDS011;16320;53.954;9.506;2022-09-09T05:27:14;333.02;;;62.20;;
29314;SDS011;16320;53.954;9.506;2022-09-09T05:30:19;372.42;;;62.67;;
29314;SDS011;16320;53.954;9.506;2022-09-09T05:33:26;331.45;;;63.83;;
29314;SDS011;16320;53.954;9.506;2022-09-09T05:36:31;319.20;;;59.92;;
29314;SDS011;16320;53.954;9.506;2022-09-09T05:39:35;358.55;;;63.17;;
29314;SDS011;16320;53.954;9.506;2022-09-09T05:42:40;369.63;;;62.47;;
29314;SDS011;16320;53.954;9.506;2022-09-09T05:45:48;280.92;;;58.28;;
29314;SDS011;16320;53.954;9.506;2022-09-09T05:49:03;285.98;;;58.67;;
29314;SDS011;16320;53.954;9.506;2022-09-09T05:52:09;357.48;;;57.13;;
29314;SDS011;16320;53.954;9.506;2022-09-09T05:55:13;271.40;;;58.92;;
29314;SDS011;16320;53.954;9.506;2022-09-09T05:58:19;241.25;;;55.95;;
29314;SDS011;16320;53.954;9.506;2022-09-09T06:01:31;318.02;;;59.08;;
29314;SDS011;16320;53.954;9.506;2022-09-09T06:04:39;267.15;;;59.35;;
29314;SDS011;16320;53.954;9.506;2022-09-09T06:07:43;282.15;;;57.83;;
29314;SDS011;16320;53.954;9.506;2022-09-09T06:10:48;335.45;;;59.70;;
29314;SDS011;16320;53.954;9.506;2022-09-09T06:13:53;292.33;;;58.05;;
29314;SDS011;16320;53.954;9.506;2022-09-09T06:16:58;239.18;;;56.25;;
29314;SDS011;16320;53.954;9.506;2022-09-09T06:20:02;264.75;;;57.65;;
29314;SDS011;16320;53.954;9.506;2022-09-09T06:23:07;271.73;;;56.13;;
29314;SDS011;16320;53.954;9.506;2022-09-09T06:26:13;287.73;;;54.53;;
29314;SDS011;16320;53.954;9.506;2022-09-09T06:29:23;224.48;;;54.47;;
29314;SDS011;16320;53.954;9.506;2022-09-09T06:32:27;217.02;;;53.70;;
29314;SDS011;16320;53.954;9.506;2022-09-09T06:35:32;205.27;;;51.25;;
29314;SDS011;16320;53.954;9.506;2022-09-09T06:38:37;219.85;;;54.78;;
29314;SDS011;16320;53.954;9.506;2022-09-09T06:41:41;214.95;;;52.15;;
29314;SDS011;16320;53.954;9.506;2022-09-09T06:44:47;197.15;;;49.78;;
29314;SDS011;16320;53.954;9.506;2022-09-09T06:47:54;243.82;;;51.85;;
29314;SDS011;16320;53.954;9.506;2022-09-09T06:51:00;264.83;;;50.92;;
29314;SDS011;16320;53.954;9.506;2022-09-09T06:54:10;212.43;;;53.13;;
29314;SDS011;16320;53.954;9.506;2022-09-09T06:57:15;191.35;;;50.85;;
29314;SDS011;16320;53.954;9.506;2022-09-09T07:00:39;233.63;;;51.22;;
29314;SDS011;16320;53.954;9.506;2022-09-09T07:03:45;190.10;;;51.55;;
29314;SDS011;16320;53.954;9.506;2022-09-09T07:06:53;202.43;;;51.42;;
29314;SDS011;16320;53.954;9.506;2022-09-09T07:09:58;181.00;;;51.75;;
29314;SDS011;16320;53.954;9.506;2022-09-09T07:13:02;226.18;;;51.60;;
29314;SDS011;16320;53.954;9.506;2022-09-09T07:16:11;185.77;;;50.97;;
29314;SDS011;16320;53.954;9.506;2022-09-09T07:19:18;176.50;;;51.72;;
29314;SDS011;16320;53.954;9.506;2022-09-09T07:22:23;169.40;;;50.78;;
29314;SDS011;16320;53.954;9.506;2022-09-09T07:25:28;204.90;;;50.78;;
29314;SDS011;16320;53.954;9.506;2022-09-09T07:28:34;174.80;;;49.60;;
29314;SDS011;16320;53.954;9.506;2022-09-09T07:31:38;168.60;;;51.15;;
29314;SDS011;16320;53.954;9.506;2022-09-09T07:34:43;161.88;;;52.10;;
29314;SDS011;16320;53.954;9.506;2022-09-09T07:37:48;147.27;;;50.38;;
29314;SDS011;16320;53.954;9.506;2022-09-09T07:41:01;156.10;;;50.22;;
29314;SDS011;16320;53.954;9.506;2022-09-09T07:44:19;161.77;;;50.20;;
29314;SDS011;16320;53.954;9.506;2022-09-09T07:47:26;169.57;;;50.47;;
29314;SDS011;16320;53.954;9.506;2022-09-09T07:50:30;154.38;;;48.75;;
29314;SDS011;16320;53.954;9.506;2022-09-09T07:53:34;144.18;;;48.10;;
29314;SDS011;16320;53.954;9.506;2022-09-09T07:56:40;164.20;;;48.28;;
29314;SDS011;16320;53.954;9.506;2022-09-09T07:59:46;157.70;;;50.10;;
29314;SDS011;16320;53.954;9.506;2022-09-09T08:02:50;159.13;;;48.92;;
29314;SDS011;16320;53.954;9.506;2022-09-09T08:05:59;154.70;;;49.50;;
29314;SDS011;16320;53.954;9.506;2022-09-09T08:09:07;164.48;;;49.83;;
29314;SDS011;16320;53.954;9.506;2022-09-09T08:12:12;167.57;;;48.45;;
29314;SDS011;16320;53.954;9.506;2022-09-09T08:15:18;147.50;;;47.63;;
29314;SDS011;16320;53.954;9.506;2022-09-09T08:18:22;148.65;;;46.67;;
29314;SDS011;16320;53.954;9.506;2022-09-09T08:21:28;132.88;;;46.53;;
29314;SDS011;16320;53.954;9.506;2022-09-09T08:24:35;130.57;;;47.10;;
29314;SDS011;16320;53.954;9.506;2022-09-09T08:27:39;138.63;;;46.25;;
29314;SDS011;16320;53.954;9.506;2022-09-09T08:30:43;144.80;;;48.75;;
29314;SDS011;16320;53.954;9.506;2022-09-09T08:33:48;174.23;;;48.38;;
29314;SDS011;16320;53.954;9.506;2022-09-09T08:36:56;151.95;;;50.72;;
29314;SDS011;16320;53.954;9.506;2022-09-09T08:40:01;143.10;;;52.55;;
29314;SDS011;16320;53.954;9.506;2022-09-09T08:43:07;148.45;;;56.28;;
29314;SDS011;16320;53.954;9.506;2022-09-09T08:46:18;162.60;;;55.00;;
29314;SDS011;16320;53.954;9.506;2022-09-09T08:53:16;143.95;;;51.58;;
29314;SDS011;16320;53.954;9.506;2022-09-09T08:56:26;138.10;;;53.42;;
29314;SDS011;16320;53.954;9.506;2022-09-09T08:59:34;122.88;;;49.95;;
29314;SDS011;16320;53.954;9.506;2022-09-09T09:06:17;105.10;;;44.70;;
29314;SDS011;16320;53.954;9.506;2022-09-09T09:09:30;119.43;;;48.10;;
29314;SDS011;16320;53.954;9.506;2022-09-09T09:12:41;108.80;;;48.78;;
29314;SDS011;16320;53.954;9.506;2022-09-09T09:15:53;102.93;;;46.50;;
29314;SDS011;16320;53.954;9.506;2022-09-09T09:19:04;103.07;;;46.60;;
29314;SDS011;16320;53.954;9.506;2022-09-09T09:22:18;95.35;;;42.13;;
29314;SDS011;16320;53.954;9.506;2022-09-09T09:25:37;81.30;;;39.03;;
29314;SDS011;16320;53.954;9.506;2022-09-09T09:28:44;72.70;;;39.28;;
29314;SDS011;16320;53.954;9.506;2022-09-09T09:31:53;71.43;;;38.05;;
29314;SDS011;16320;53.954;9.506;2022-09-09T09:35:06;64.60;;;34.95;;
29314;SDS011;16320;53.954;9.506;2022-09-09T09:38:22;65.03;;;37.53;;
29314;SDS011;16320;53.954;9.506;2022-09-09T09:41:49;63.03;;;38.30;;
29314;SDS011;16320;53.954;9.506;2022-09-09T09:44:54;51.00;;;30.98;;
29314;SDS011;16320;53.954;9.506;2022-09-09T09:48:03;45.67;;;28.08;;
29314;SDS011;16320;53.954;9.506;2022-09-09T09:51:12;45.83;;;29.27;;
29314;SDS011;16320;53.954;9.506;2022-09-09T09:54:30;44.22;;;28.95;;
29314;SDS011;16320;53.954;9.506;2022-09-09T09:57:41;46.30;;;28.88;;
29314;SDS011;16320;53.954;9.506;2022-09-09T10:00:49;38.78;;;27.35;;
29314;SDS011;16320;53.954;9.506;2022-09-09T10:03:57;38.00;;;27.25;;
29314;SDS011;16320;53.954;9.506;2022-09-09T10:07:20;28.85;;;24.55;;
29314;SDS011;16320;53.954;9.506;2022-09-09T10:10:33;27.00;;;24.00;;
29314;SDS011;16320;53.954;9.506;2022-09-09T10:14:11;27.27;;;21.50;;
29314;SDS011;16320;53.954;9.506;2022-09-09T10:38:39;14.55;;;13.05;;
29314;SDS011;16320;53.954;9.506;2022-09-09T10:42:00;14.52;;;11.02;;
29314;SDS011;16320;53.954;9.506;2022-09-09T10:45:15;10.70;;;8.38;;
29314;SDS011;16320;53.954;9.506;2022-09-09T10:55:27;8.80;;;7.30;;
29314;SDS011;16320;53.954;9.506;2022-09-09T10:59:07;10.18;;;7.13;;
29314;SDS011;16320;53.954;9.506;2022-09-09T11:02:27;9.07;;;8.18;;
29314;SDS011;16320;53.954;9.506;2022-09-09T11:05:43;10.55;;;7.75;;
29314;SDS011;16320;53.954;9.506;2022-09-09T11:08:57;8.15;;;6.50;;
29314;SDS011;16320;53.954;9.506;2022-09-09T11:12:05;7.90;;;5.78;;
29314;SDS011;16320;53.954;9.506;2022-09-09T11:15:31;8.18;;;6.38;;
29314;SDS011;16320;53.954;9.506;2022-09-09T11:18:49;7.80;;;6.47;;
29314;SDS011;16320;53.954;9.506;2022-09-09T11:21:53;7.45;;;5.43;;
29314;SDS011;16320;53.954;9.506;2022-09-09T11:25:45;9.20;;;5.68;;
29314;SDS011;16320;53.954;9.506;2022-09-09T11:28:51;10.77;;;5.15;;
29314;SDS011;16320;53.954;9.506;2022-09-09T11:32:38;9.93;;;5.70;;
29314;SDS011;16320;53.954;9.506;2022-09-09T11:36:29;8.32;;;6.60;;
29314;SDS011;16320;53.954;9.506;2022-09-09T11:43:30;9.18;;;5.00;;
29314;SDS011;16320;53.954;9.506;2022-09-09T11:46:42;9.52;;;5.80;;
29314;SDS011;16320;53.954;9.506;2022-09-09T11:49:49;6.55;;;4.15;;
29314;SDS011;16320;53.954;9.506;2022-09-09T11:53:05;4.72;;;4.30;;
29314;SDS011;16320;53.954;9.506;2022-09-09T11:56:34;6.93;;;3.70;;
29314;SDS011;16320;53.954;9.506;2022-09-09T11:59:51;9.57;;;4.60;;
29314;SDS011;16320;53.954;9.506;2022-09-09T12:02:56;8.57;;;5.25;;
29314;SDS011;16320;53.954;9.506;2022-09-09T12:09:48;7.10;;;4.05;;
29314;SDS011;16320;53.954;9.506;2022-09-09T12:13:22;8.25;;;3.40;;
29314;SDS011;16320;53.954;9.506;2022-09-09T12:16:28;5.25;;;2.85;;
29314;SDS011;16320;53.954;9.506;2022-09-09T12:19:42;4.65;;;2.08;;
29314;SDS011;16320;53.954;9.506;2022-09-09T12:26:43;2.08;;;1.58;;
29314;SDS011;16320;53.954;9.506;2022-09-09T12:30:04;6.63;;;2.10;;
29314;SDS011;16320;53.954;9.506;2022-09-09T12:33:16;2.22;;;1.30;;
29314;SDS011;16320;53.954;9.506;2022-09-09T12:36:24;4.25;;;1.85;;
29314;SDS011;16320;53.954;9.506;2022-09-09T12:39:35;3.47;;;1.95;;
29314;SDS011;16320;53.954;9.506;2022-09-09T12:42:50;2.90;;;2.40;;
29314;SDS011;16320;53.954;9.506;2022-09-09T12:45:59;2.33;;;1.90;;
29314;SDS011;16320;53.954;9.506;2022-09-09T12:49:26;3.70;;;2.28;;
29314;SDS011;16320;53.954;9.506;2022-09-09T12:52:42;4.68;;;2.17;;
29314;SDS011;16320;53.954;9.506;2022-09-09T12:55:52;5.15;;;2.85;;
29314;SDS011;16320;53.954;9.506;2022-09-09T12:59:04;4.38;;;2.72;;
29314;SDS011;16320;53.954;9.506;2022-09-09T13:02:11;4.53;;;2.58;;
29314;SDS011;16320;53.954;9.506;2022-09-09T13:05:36;4.60;;;2.70;;
29314;SDS011;16320;53.954;9.506;2022-09-09T13:08:45;4.55;;;2.72;;
29314;SDS011;16320;53.954;9.506;2022-09-09T13:11:50;3.38;;;2.17;;
29314;SDS011;16320;53.954;9.506;2022-09-09T13:15:00;6.57;;;2.63;;
29314;SDS011;16320;53.954;9.506;2022-09-09T13:18:06;4.55;;;2.70;;
29314;SDS011;16320;53.954;9.506;2022-09-09T13:21:16;5.28;;;2.30;;
29314;SDS011;16320;53.954;9.506;2022-09-09T13:24:30;5.50;;;3.03;;
29314;SDS011;16320;53.954;9.506;2022-09-09T13:27:38;2.88;;;2.08;;
29314;SDS011;16320;53.954;9.506;2022-09-09T13:30:54;4.68;;;2.90;;
29314;SDS011;16320;53.954;9.506;2022-09-09T13:34:26;3.28;;;2.65;;
29314;SDS011;16320;53.954;9.506;2022-09-09T13:37:34;6.18;;;2.90;;
29314;SDS011;16320;53.954;9.506;2022-09-09T13:40:55;6.10;;;3.67;;
29314;SDS011;16320;53.954;9.506;2022-09-09T13:44:17;8.18;;;2.70;;
29314;SDS011;16320;53.954;9.506;2022-09-09T13:47:35;5.40;;;2.75;;
29314;SDS011;16320;53.954;9.506;2022-09-09T13:50:40;3.95;;;2.50;;
29314;SDS011;16320;53.954;9.506;2022-09-09T13:53:45;7.13;;;2.45;;
29314;SDS011;16320;53.954;9.506;2022-09-09T13:56:49;6.97;;;3.35;;
29314;SDS011;16320;53.954;9.506;2022-09-09T13:59:54;4.78;;;2.85;;
29314;SDS011;16320;53.954;9.506;2022-09-09T14:09:18;5.32;;;3.22;;
29314;SDS011;16320;53.954;9.506;2022-09-09T14:12:23;3.15;;;2.83;;
29314;SDS011;16320;53.954;9.506;2022-09-09T14:15:28;3.83;;;2.78;;
29314;SDS011;16320;53.954;9.506;2022-09-09T14:18:32;5.35;;;1.90;;
29314;SDS011;16320;53.954;9.506;2022-09-09T14:21:37;6.38;;;1.15;;
29314;SDS011;16320;53.954;9.506;2022-09-09T14:24:42;3.33;;;1.15;;
29314;SDS011;16320;53.954;9.506;2022-09-09T14:27:46;5.30;;;1.40;;
29314;SDS011;16320;53.954;9.506;2022-09-09T14:30:50;3.05;;;1.27;;
29314;SDS011;16320;53.954;9.506;2022-09-09T14:33:57;3.88;;;1.70;;
29314;SDS011;16320;53.954;9.506;2022-09-09T14:37:02;8.13;;;2.72;;
29314;SDS011;16320;53.954;9.506;2022-09-09T14:40:06;12.27;;;2.92;;
29314;SDS011;16320;53.954;9.506;2022-09-09T14:43:11;6.35;;;3.83;;
29314;SDS011;16320;53.954;9.506;2022-09-09T14:46:16;6.28;;;3.50;;
29314;SDS011;16320;53.954;9.506;2022-09-09T14:49:23;8.50;;;4.88;;
29314;SDS011;16320;53.954;9.506;2022-09-09T14:52:27;8.30;;;3.90;;
29314;SDS011;16320;53.954;9.506;2022-09-09T14:55:33;9.30;;;3.90;;
29314;SDS011;16320;53.954;9.506;2022-09-09T14:58:38;7.60;;;3.90;;
29314;SDS011;16320;53.954;9.506;2022-09-09T15:01:43;11.27;;;4.00;;
29314;SDS011;16320;53.954;9.506;2022-09-09T15:04:47;5.82;;;3.17;;
29314;SDS011;16320;53.954;9.506;2022-09-09T15:07:53;8.80;;;2.42;;
29314;SDS011;16320;53.954;9.506;2022-09-09T15:10:58;3.53;;;1.80;;
29314;SDS011;16320;53.954;9.506;2022-09-09T15:14:05;3.60;;;2.03;;
29314;SDS011;16320;53.954;9.506;2022-09-09T15:17:12;6.65;;;2.47;;
29314;SDS011;16320;53.954;9.506;2022-09-09T15:20:17;3.80;;;2.20;;
29314;SDS011;16320;53.954;9.506;2022-09-09T15:23:21;6.20;;;4.32;;
29314;SDS011;16320;53.954;9.506;2022-09-09T15:26:26;6.78;;;5.13;;
29314;SDS011;16320;53.954;9.506;2022-09-09T15:29:31;7.20;;;3.45;;
29314;SDS011;16320;53.954;9.506;2022-09-09T15:32:36;3.30;;;2.70;;
29314;SDS011;16320;53.954;9.506;2022-09-09T15:38:44;3.60;;;2.40;;
29314;SDS011;16320;53.954;9.506;2022-09-09T15:41:50;4.85;;;3.03;;
29314;SDS011;16320;53.954;9.506;2022-09-09T15:44:55;2.67;;;2.28;;
29314;SDS011;16320;53.954;9.506;2022-09-09T15:48:01;7.70;;;3.38;;
29314;SDS011;16320;53.954;9.506;2022-09-09T15:51:06;6.47;;;3.30;;
29314;SDS011;16320;53.954;9.506;2022-09-09T15:54:34;8.93;;;3.67;;
29314;SDS011;16320;53.954;9.506;2022-09-09T15:57:42;6.80;;;3.40;;
29314;SDS011;16320;53.954;9.506;2022-09-09T16:00:46;7.40;;;4.13;;
29314;SDS011;16320;53.954;9.506;2022-09-09T16:03:51;7.32;;;3.78;;
29314;SDS011;16320;53.954;9.506;2022-09-09T16:06:57;7.47;;;3.58;;
29314;SDS011;16320;53.954;9.506;2022-09-09T16:10:07;4.05;;;3.40;;
29314;SDS011;16320;53.954;9.506;2022-09-09T16:13:12;5.72;;;4.10;;
29314;SDS011;16320;53.954;9.506;2022-09-09T16:16:18;12.05;;;5.28;;
29314;SDS011;16320;53.954;9.506;2022-09-09T16:19:25;8.25;;;5.50;;
29314;SDS011;16320;53.954;9.506;2022-09-09T16:22:29;7.85;;;5.53;;
29314;SDS011;16320;53.954;9.506;2022-09-09T16:25:34;6.05;;;4.53;;
29314;SDS011;16320;53.954;9.506;2022-09-09T16:28:38;5.95;;;4.35;;
29314;SDS011;16320;53.954;9.506;2022-09-09T16:31:44;5.97;;;4.68;;
29314;SDS011;16320;53.954;9.506;2022-09-09T16:34:50;7.10;;;4.30;;
29314;SDS011;16320;53.954;9.506;2022-09-09T16:37:55;5.97;;;4.82;;
29314;SDS011;16320;53.954;9.506;2022-09-09T16:41:01;11.23;;;5.50;;
29314;SDS011;16320;53.954;9.506;2022-09-09T16:44:09;8.38;;;5.03;;
29314;SDS011;16320;53.954;9.506;2022-09-09T16:47:16;5.35;;;4.45;;
29314;SDS011;16320;53.954;9.506;2022-09-09T16:50:20;6.65;;;4.38;;
29314;SDS011;16320;53.954;9.506;2022-09-09T16:53:24;4.10;;;3.78;;
29314;SDS011;16320;53.954;9.506;2022-09-09T16:56:30;8.48;;;3.95;;
29314;SDS011;16320;53.954;9.506;2022-09-09T16:59:37;5.63;;;3.85;;
29314;SDS011;16320;53.954;9.506;2022-09-09T17:02:42;9.10;;;3.17;;
29314;SDS011;16320;53.954;9.506;2022-09-09T17:05:48;3.33;;;2.90;;
29314;SDS011;16320;53.954;9.506;2022-09-09T17:08:56;4.10;;;2.55;;
29314;SDS011;16320;53.954;9.506;2022-09-09T17:12:03;4.10;;;2.83;;
29314;SDS011;16320;53.954;9.506;2022-09-09T17:15:08;3.20;;;2.90;;
29314;SDS011;16320;53.954;9.506;2022-09-09T17:18:13;7.60;;;2.60;;
29314;SDS011;16320;53.954;9.506;2022-09-09T17:21:19;5.47;;;2.90;;
29314;SDS011;16320;53.954;9.506;2022-09-09T17:24:29;5.18;;;2.33;;
29314;SDS011;16320;53.954;9.506;2022-09-09T17:27:37;6.38;;;2.75;;
29314;SDS011;16320;53.954;9.506;2022-09-09T17:30:43;8.13;;;2.47;;
29314;SDS011;16320;53.954;9.506;2022-09-09T17:33:48;12.05;;;4.32;;
29314;SDS011;16320;53.954;9.506;2022-09-09T17:36:58;3.78;;;2.60;;
29314;SDS011;16320;53.954;9.506;2022-09-09T17:40:03;5.13;;;3.05;;
29314;SDS011;16320;53.954;9.506;2022-09-09T17:43:08;4.15;;;2.33;;
29314;SDS011;16320;53.954;9.506;2022-09-09T17:46:19;3.05;;;2.35;;
29314;SDS011;16320;53.954;9.506;2022-09-09T17:49:29;3.60;;;2.55;;
29314;SDS011;16320;53.954;9.506;2022-09-09T17:52:34;5.20;;;2.45;;
29314;SDS011;16320;53.954;9.506;2022-09-09T17:55:38;4.07;;;2.78;;
29314;SDS011;16320;53.954;9.506;2022-09-09T17:58:45;3.97;;;2.60;;
29314;SDS011;16320;53.954;9.506;2022-09-09T18:01:50;3.58;;;2.72;;
29314;SDS011;16320;53.954;9.506;2022-09-09T18:04:55;5.78;;;2.58;;
29314;SDS011;16320;53.954;9.506;2022-09-09T18:08:00;7.20;;;3.00;;
29314;SDS011;16320;53.954;9.506;2022-09-09T18:11:04;3.20;;;2.20;;
29314;SDS011;16320;53.954;9.506;2022-09-09T18:14:29;4.43;;;2.72;;
29314;SDS011;16320;53.954;9.506;2022-09-09T18:17:34;6.90;;;3.13;;
29314;SDS011;16320;53.954;9.506;2022-09-09T18:20:40;5.82;;;3.55;;
29314;SDS011;16320;53.954;9.506;2022-09-09T18:23:45;10.35;;;3.53;;
29314;SDS011;16320;53.954;9.506;2022-09-09T18:26:54;5.22;;;3.35;;
29314;SDS011;16320;53.954;9.506;2022-09-09T18:29:59;5.55;;;3.45;;
29314;SDS011;16320;53.954;9.506;2022-09-09T18:33:03;6.22;;;4.05;;
29314;SDS011;16320;53.954;9.506;2022-09-09T18:36:09;6.03;;;4.00;;
29314;SDS011;16320;53.954;9.506;2022-09-09T18:39:19;6.93;;;5.88;;
29314;SDS011;16320;53.954;9.506;2022-09-09T18:42:29;8.23;;;5.90;;
29314;SDS011;16320;53.954;9.506;2022-09-09T18:45:34;10.43;;;6.25;;
29314;SDS011;16320;53.954;9.506;2022-09-09T18:48:41;11.52;;;6.80;;
29314;SDS011;16320;53.954;9.506;2022-09-09T18:51:48;10.75;;;7.88;;
29314;SDS011;16320;53.954;9.506;2022-09-09T18:54:53;9.82;;;6.95;;
29314;SDS011;16320;53.954;9.506;2022-09-09T18:57:58;10.38;;;7.90;;
29314;SDS011;16320;53.954;9.506;2022-09-09T19:01:03;10.27;;;7.30;;
29314;SDS011;16320;53.954;9.506;2022-09-09T19:04:11;11.77;;;9.98;;
29314;SDS011;16320;53.954;9.506;2022-09-09T19:07:16;13.10;;;9.38;;
29314;SDS011;16320;53.954;9.506;2022-09-09T19:10:21;16.08;;;8.98;;
29314;SDS011;16320;53.954;9.506;2022-09-09T19:13:26;12.07;;;9.57;;
29314;SDS011;16320;53.954;9.506;2022-09-09T19:16:32;11.10;;;7.57;;
29314;SDS011;16320;53.954;9.506;2022-09-09T19:19:38;10.82;;;8.07;;
29314;SDS011;16320;53.954;9.506;2022-09-09T19:22:44;9.85;;;7.40;;
29314;SDS011;16320;53.954;9.506;2022-09-09T19:25:49;10.90;;;7.20;;
29314;SDS011;16320;53.954;9.506;2022-09-09T19:28:54;8.68;;;6.68;;
29314;SDS011;16320;53.954;9.506;2022-09-09T19:32:01;9.68;;;5.90;;
29314;SDS011;16320;53.954;9.506;2022-09-09T19:35:26;16.17;;;6.32;;
29314;SDS011;16320;53.954;9.506;2022-09-09T19:38:32;10.95;;;7.15;;
29314;SDS011;16320;53.954;9.506;2022-09-09T19:41:38;8.02;;;7.13;;
29314;SDS011;16320;53.954;9.506;2022-09-09T19:44:43;8.65;;;7.05;;
29314;SDS011;16320;53.954;9.506;2022-09-09T19:47:47;9.15;;;7.30;;
29314;SDS011;16320;53.954;9.506;2022-09-09T19:50:52;9.07;;;7.60;;
29314;SDS011;16320;53.954;9.506;2022-09-09T19:53:59;10.40;;;6.78;;
29314;SDS011;16320;53.954;9.506;2022-09-09T19:57:10;8.63;;;6.68;;
29314;SDS011;16320;53.954;9.506;2022-09-09T20:00:15;9.25;;;6.78;;
29314;SDS011;16320;53.954;9.506;2022-09-09T20:03:21;11.85;;;8.05;;
29314;SDS011;16320;53.954;9.506;2022-09-09T20:06:26;13.45;;;7.38;;
29314;SDS011;16320;53.954;9.506;2022-09-09T20:09:38;10.38;;;7.75;;
29314;SDS011;16320;53.954;9.506;2022-09-09T20:12:42;8.20;;;7.18;;
29314;SDS011;16320;53.954;9.506;2022-09-09T20:15:56;8.65;;;6.93;;